createdAt,value
2022-12-26T00:01:24.982Z,6.53
2022-12-26T00:06:29.303Z,6.65
2022-12-26T00:11:31.480Z,6.30
2022-12-26T00:16:34.129Z,5.95
2022-12-26T00:21:36.191Z,5.20
2022-12-26T00:26:38.386Z,4.85
2022-12-26T00:31:40.440Z,5.60
2022-12-26T00:36:42.387Z,5.88
2022-12-26T00:41:44.200Z,5.25
2022-12-26T00:46:46.073Z,5.75
2022-12-26T00:51:47.999Z,5.40
2022-12-26T00:56:49.806Z,5.57
2022-12-26T01:01:51.761Z,5.15
2022-12-26T01:06:53.932Z,5.32
2022-12-26T01:11:55.680Z,6.20
2022-12-26T01:16:57.535Z,5.60
2022-12-26T01:21:59.342Z,5.45
2022-12-26T01:27:01.120Z,5.75
2022-12-26T01:32:03.046Z,6.65
2022-12-26T01:37:05.031Z,7.72
2022-12-26T01:42:14.422Z,9.25
2022-12-26T01:47:17.044Z,9.00
2022-12-26T01:52:32.291Z,9.63
2022-12-26T01:57:41.894Z,7.88
2022-12-26T02:03:03.206Z,7.25
2022-12-26T02:08:26.562Z,7.20
2022-12-26T02:13:30.701Z,5.88
2022-12-26T02:18:32.524Z,5.60
2022-12-26T02:23:58.738Z,5.63
2022-12-26T02:29:39.579Z,4.22
2022-12-26T02:35:04.738Z,4.07
2022-12-26T02:40:35.536Z,3.30
2022-12-26T02:46:30.623Z,3.47
2022-12-26T02:52:32.956Z,2.63
2022-12-26T02:58:04.761Z,2.60
2022-12-26T03:03:38.954Z,2.55
2022-12-26T03:09:06.393Z,2.38
2022-12-26T03:14:30.023Z,2.10
2022-12-26T03:19:34.091Z,2.50
2022-12-26T03:24:56.293Z,2.20
2022-12-26T03:30:16.687Z,2.38
2022-12-26T03:35:19.132Z,2.65
2022-12-26T03:40:45.405Z,3.03
2022-12-26T03:46:24.082Z,3.08
2022-12-26T03:51:53.894Z,3.28
2022-12-26T03:57:28.042Z,3.58
2022-12-26T04:02:50.353Z,3.17
2022-12-26T04:08:19.166Z,3.83
2022-12-26T04:13:47.893Z,2.60
2022-12-26T04:19:27.198Z,2.75
2022-12-26T04:24:52.938Z,2.28
2022-12-26T04:30:13.697Z,2.90
2022-12-26T04:35:45.534Z,2.38
2022-12-26T04:41:13.053Z,2.40
2022-12-26T04:46:16.143Z,2.40
2022-12-26T04:51:17.962Z,2.67
2022-12-26T04:56:19.978Z,2.70
2022-12-26T05:01:40.881Z,2.22
2022-12-26T05:07:01.384Z,2.15
2022-12-26T05:12:06.133Z,1.90
2022-12-26T05:17:26.783Z,2.53
2022-12-26T05:22:50.041Z,1.45
2022-12-26T05:28:10.516Z,2.35
2022-12-26T05:33:31.137Z,2.00
2022-12-26T05:38:32.909Z,1.45
2022-12-26T05:43:34.687Z,2.08
2022-12-26T05:48:36.508Z,1.70
2022-12-26T05:53:38.667Z,1.60
2022-12-26T05:58:40.854Z,1.60
2022-12-26T06:03:44.003Z,1.48
2022-12-26T06:08:50.751Z,1.45
2022-12-26T06:13:53.241Z,1.40
2022-12-26T06:18:55.540Z,1.65
2022-12-26T06:23:57.564Z,1.20
2022-12-26T06:28:59.367Z,1.75
2022-12-26T06:34:03.816Z,1.30
2022-12-26T06:39:05.590Z,1.45
2022-12-26T06:44:09.550Z,1.50
2022-12-26T06:49:14.816Z,1.15
2022-12-26T06:54:16.550Z,1.00
2022-12-26T06:59:18.285Z,0.98
2022-12-26T07:04:20.131Z,0.85
2022-12-26T07:09:22.107Z,1.17
2022-12-26T07:14:23.863Z,1.00
2022-12-26T07:19:25.619Z,1.00
2022-12-26T07:24:27.446Z,1.20
2022-12-26T07:29:29.209Z,1.00
2022-12-26T07:34:31.890Z,1.48
2022-12-26T07:39:34.166Z,1.10
2022-12-26T07:44:36.131Z,1.13
2022-12-26T07:49:37.961Z,1.00
2022-12-26T07:54:39.803Z,1.23
2022-12-26T07:59:41.573Z,1.08
2022-12-26T08:04:43.314Z,1.05
2022-12-26T08:09:45.250Z,1.15
2022-12-26T08:14:47.548Z,1.20
2022-12-26T08:19:49.557Z,1.15
2022-12-26T08:24:51.333Z,1.35
2022-12-26T08:29:53.124Z,1.13
2022-12-26T08:34:55.056Z,1.20
2022-12-26T08:39:57.053Z,12.63
2022-12-26T08:44:58.833Z,1.83
2022-12-26T08:50:00.640Z,1.20
2022-12-26T08:55:03.070Z,1.25
2022-12-26T09:00:06.207Z,1.23
2022-12-26T09:05:08.479Z,1.27
2022-12-26T09:10:10.604Z,1.17
2022-12-26T09:15:13.460Z,1.30
2022-12-26T09:20:15.306Z,1.45
2022-12-26T09:25:18.764Z,1.23
2022-12-26T09:30:22.131Z,1.50
2022-12-26T09:35:23.897Z,1.42
2022-12-26T09:40:30.731Z,1.55
2022-12-26T09:46:00.920Z,1.40
2022-12-26T09:51:03.281Z,1.50
2022-12-26T09:56:23.656Z,1.20
2022-12-26T10:01:36.621Z,1.10
2022-12-26T10:06:42.179Z,1.20
2022-12-26T10:11:53.082Z,0.98
2022-12-26T10:16:54.838Z,1.30
2022-12-26T10:22:22.842Z,1.08
2022-12-26T10:27:28.404Z,1.42
2022-12-26T10:32:44.507Z,1.30
2022-12-26T10:37:47.768Z,1.38
2022-12-26T10:42:58.133Z,1.20
2022-12-26T10:48:00.023Z,1.65
2022-12-26T10:53:06.805Z,1.10
2022-12-26T10:58:33.864Z,1.65
2022-12-26T11:03:42.101Z,1.40
2022-12-26T11:08:52.138Z,1.13
2022-12-26T11:14:01.807Z,1.37
2022-12-26T11:19:04.893Z,2.75
2022-12-26T11:24:09.706Z,1.10
2022-12-26T11:29:14.607Z,1.55
2022-12-26T11:34:27.803Z,1.63
2022-12-26T11:39:34.725Z,1.65
2022-12-26T11:44:41.080Z,1.33
2022-12-26T11:49:45.835Z,1.55
2022-12-26T11:54:49.931Z,1.67
2022-12-26T11:59:52.996Z,1.83
2022-12-26T12:05:14.473Z,2.05
2022-12-26T12:10:28.711Z,1.65
2022-12-26T12:15:44.290Z,1.73
2022-12-26T12:20:50.306Z,1.90
2022-12-26T12:26:07.711Z,1.38
2022-12-26T12:31:37.629Z,2.10
2022-12-26T12:37:09.133Z,1.33
2022-12-26T12:42:25.850Z,2.13
2022-12-26T12:47:39.491Z,2.10
2022-12-26T12:53:04.112Z,1.70
2022-12-26T12:58:28.639Z,1.50
2022-12-26T13:03:37.796Z,1.63
2022-12-26T13:09:00.259Z,1.70
2022-12-26T13:14:25.727Z,1.02
2022-12-26T13:20:01.807Z,1.60
2022-12-26T13:25:04.576Z,2.08
2022-12-26T13:30:15.258Z,2.17
2022-12-26T13:35:58.367Z,1.73
2022-12-26T13:41:22.661Z,1.95
2022-12-26T13:46:38.555Z,1.30
2022-12-26T13:51:49.799Z,1.90
2022-12-26T13:57:36.620Z,2.08
2022-12-26T14:03:16.587Z,1.35
2022-12-26T14:08:23.932Z,2.20
2022-12-26T14:13:53.544Z,1.05
2022-12-26T14:18:58.323Z,1.95
2022-12-26T14:24:09.230Z,1.48
2022-12-26T14:29:32.142Z,1.77
2022-12-26T14:34:55.735Z,2.38
2022-12-26T14:40:16.225Z,2.78
2022-12-26T14:45:30.316Z,1.55
2022-12-26T14:50:40.288Z,2.65
2022-12-26T14:56:02.935Z,3.10
2022-12-26T15:01:12.895Z,2.90
2022-12-26T15:06:20.640Z,1.60
2022-12-26T15:12:00.227Z,2.15
2022-12-26T15:17:20.115Z,1.65
2022-12-26T15:22:56.373Z,1.90
2022-12-26T15:27:59.369Z,1.90
2022-12-26T15:33:04.697Z,1.60
2022-12-26T15:38:49.759Z,1.60
2022-12-26T15:44:06.487Z,1.27
2022-12-26T15:49:30.740Z,1.67
2022-12-26T15:54:51.301Z,1.40
2022-12-26T16:00:15.567Z,1.55
2022-12-26T16:05:53.945Z,1.40
2022-12-26T16:11:22.191Z,2.33
2022-12-26T16:16:31.931Z,1.88
2022-12-26T16:21:52.515Z,1.88
2022-12-26T16:26:55.347Z,0.98
2022-12-26T16:32:06.260Z,2.30
2022-12-26T16:37:15.575Z,1.35
2022-12-26T16:42:30.638Z,2.00
2022-12-26T16:47:33.186Z,1.70
2022-12-26T16:52:43.922Z,2.22
2022-12-26T16:57:48.346Z,2.50
2022-12-26T17:02:54.077Z,2.30
2022-12-26T17:07:58.782Z,2.88
2022-12-26T17:13:05.427Z,2.80
2022-12-26T17:18:37.068Z,2.83
2022-12-26T17:23:39.920Z,1.92
2022-12-26T17:28:41.710Z,2.30
2022-12-26T17:33:47.858Z,1.95
2022-12-26T17:38:50.098Z,2.95
2022-12-26T17:43:54.658Z,2.58
2022-12-26T17:48:57.272Z,1.80
2022-12-26T17:53:59.041Z,2.00
2022-12-26T17:59:00.807Z,2.38
2022-12-26T18:04:02.659Z,2.40
2022-12-26T18:09:04.475Z,2.70
2022-12-26T18:14:06.711Z,2.72
2022-12-26T18:19:14.230Z,2.72
2022-12-26T18:24:16.067Z,3.33
2022-12-26T18:29:18.009Z,3.28
2022-12-26T18:34:19.837Z,2.90
2022-12-26T18:39:22.051Z,3.60
2022-12-26T18:44:23.866Z,4.00
2022-12-26T18:49:25.972Z,3.13
2022-12-26T18:54:27.849Z,3.47
2022-12-26T18:59:29.644Z,3.53
2022-12-26T19:04:31.509Z,3.90
2022-12-26T19:09:33.278Z,3.70
2022-12-26T19:14:35.375Z,4.20
2022-12-26T19:19:37.175Z,4.82
2022-12-26T19:24:39.070Z,4.50
2022-12-26T19:29:41.125Z,3.70
2022-12-26T19:34:43.017Z,3.72
2022-12-26T19:39:44.861Z,5.35
2022-12-26T19:44:48.641Z,3.65
2022-12-26T19:49:50.468Z,3.75
2022-12-26T19:54:52.813Z,3.47
2022-12-26T19:59:54.605Z,4.03
2022-12-26T20:04:56.453Z,4.13
2022-12-26T20:09:58.240Z,4.35
2022-12-26T20:15:00.120Z,3.83
2022-12-26T20:20:02.022Z,3.92
2022-12-26T20:25:04.427Z,4.15
2022-12-26T20:30:07.512Z,3.70
2022-12-26T20:35:09.483Z,3.60
2022-12-26T20:40:11.823Z,3.45
2022-12-26T20:45:14.123Z,3.97
2022-12-26T20:50:17.586Z,3.50
2022-12-26T20:55:19.464Z,3.58
2022-12-26T21:00:21.301Z,3.28
2022-12-26T21:05:23.116Z,3.33
2022-12-26T21:10:25.055Z,4.03
2022-12-26T21:15:26.817Z,3.28
2022-12-26T21:20:28.589Z,3.92
2022-12-26T21:25:30.441Z,3.38
2022-12-26T21:30:32.351Z,3.47
2022-12-26T21:35:37.784Z,3.38
2022-12-26T21:40:43.384Z,3.63
2022-12-26T21:45:45.347Z,3.40
2022-12-26T21:50:47.222Z,3.53
2022-12-26T21:55:48.992Z,3.40
2022-12-26T22:00:50.873Z,4.13
2022-12-26T22:05:52.919Z,3.67
2022-12-26T22:11:13.128Z,3.75
2022-12-26T22:16:16.257Z,2.92
2022-12-26T22:21:22.905Z,2.72
2022-12-26T22:26:25.428Z,3.63
2022-12-26T22:31:36.059Z,3.35
2022-12-26T22:36:39.078Z,2.97
2022-12-26T22:41:41.195Z,3.40
2022-12-26T22:46:43.289Z,3.05
2022-12-26T22:51:46.191Z,3.00
2022-12-26T22:56:47.998Z,3.10
2022-12-26T23:01:49.925Z,3.75
2022-12-26T23:06:52.438Z,2.40
2022-12-26T23:12:13.108Z,2.83
2022-12-26T23:17:37.254Z,3.05
2022-12-26T23:22:39.271Z,3.17
2022-12-26T23:27:59.422Z,2.90
2022-12-26T23:33:01.243Z,2.15
2022-12-26T23:38:02.971Z,2.90
2022-12-26T23:43:04.745Z,2.83
2022-12-26T23:48:06.685Z,2.55
2022-12-26T23:53:08.577Z,2.47
2022-12-26T23:58:10.407Z,1.90
